sensor_id;sensor_type;location;lat;lon;timestamp;P1;durP1;ratioP1;P2;durP2;ratioP2
42338;SDS011;27993;45.392;10.918;2023-04-03T00:00:53;4.23;;;2.43;;
42338;SDS011;27993;45.392;10.918;2023-04-03T00:03:24;3.93;;;1.97;;
42338;SDS011;27993;45.392;10.918;2023-04-03T00:05:54;6.50;;;2.60;;
42338;SDS011;27993;45.392;10.918;2023-04-03T00:08:25;5.60;;;2.60;;
42338;SDS011;27993;45.392;10.918;2023-04-03T00:10:56;5.07;;;2.83;;
42338;SDS011;27993;45.392;10.918;2023-04-03T00:13:27;5.00;;;3.03;;
42338;SDS011;27993;45.392;10.918;2023-04-03T00:15:58;4.27;;;2.20;;
42338;SDS011;27993;45.392;10.918;2023-04-03T00:18:29;3.72;;;2.10;;
42338;SDS011;27993;45.392;10.918;2023-04-03T00:21:00;4.70;;;2.87;;
42338;SDS011;27993;45.392;10.918;2023-04-03T00:23:31;6.78;;;3.15;;
42338;SDS011;27993;45.392;10.918;2023-04-03T00:26:02;5.80;;;2.90;;
42338;SDS011;27993;45.392;10.918;2023-04-03T00:28:32;4.27;;;2.43;;
42338;SDS011;27993;45.392;10.918;2023-04-03T00:31:03;3.37;;;1.97;;
42338;SDS011;27993;45.392;10.918;2023-04-03T00:33:34;5.50;;;2.87;;
42338;SDS011;27993;45.392;10.918;2023-04-03T00:36:05;3.70;;;2.57;;
42338;SDS011;27993;45.392;10.918;2023-04-03T00:38:39;3.45;;;2.00;;
42338;SDS011;27993;45.392;10.918;2023-04-03T00:41:10;5.53;;;2.90;;
42338;SDS011;27993;45.392;10.918;2023-04-03T00:43:40;6.73;;;2.80;;
42338;SDS011;27993;45.392;10.918;2023-04-03T00:46:11;7.10;;;3.13;;
42338;SDS011;27993;45.392;10.918;2023-04-03T00:48:42;3.93;;;2.40;;
42338;SDS011;27993;45.392;10.918;2023-04-03T00:51:24;7.43;;;2.25;;
42338;SDS011;27993;45.392;10.918;2023-04-03T00:54:00;5.87;;;2.70;;
42338;SDS011;27993;45.392;10.918;2023-04-03T00:56:34;10.90;;;2.55;;
42338;SDS011;27993;45.392;10.918;2023-04-03T00:59:08;4.60;;;2.83;;
42338;SDS011;27993;45.392;10.918;2023-04-03T01:01:43;2.97;;;1.98;;
42338;SDS011;27993;45.392;10.918;2023-04-03T01:07:03;6.37;;;2.60;;
42338;SDS011;27993;45.392;10.918;2023-04-03T01:09:38;3.55;;;2.22;;
42338;SDS011;27993;45.392;10.918;2023-04-03T01:12:13;7.82;;;2.85;;
42338;SDS011;27993;45.392;10.918;2023-04-03T01:14:54;4.10;;;2.33;;
42338;SDS011;27993;45.392;10.918;2023-04-03T01:23:07;4.12;;;2.20;;
42338;SDS011;27993;45.392;10.918;2023-04-03T01:25:52;5.10;;;2.20;;
42338;SDS011;27993;45.392;10.918;2023-04-03T01:28:26;3.55;;;2.33;;
42338;SDS011;27993;45.392;10.918;2023-04-03T01:33:40;7.75;;;2.28;;
42338;SDS011;27993;45.392;10.918;2023-04-03T01:36:16;3.37;;;2.20;;
42338;SDS011;27993;45.392;10.918;2023-04-03T01:38:52;5.55;;;2.62;;
42338;SDS011;27993;45.392;10.918;2023-04-03T01:41:23;6.80;;;2.45;;
42338;SDS011;27993;45.392;10.918;2023-04-03T01:43:55;9.80;;;2.67;;
42338;SDS011;27993;45.392;10.918;2023-04-03T01:46:26;7.03;;;2.63;;
42338;SDS011;27993;45.392;10.918;2023-04-03T01:48:56;4.30;;;2.80;;
42338;SDS011;27993;45.392;10.918;2023-04-03T01:51:27;6.20;;;2.58;;
42338;SDS011;27993;45.392;10.918;2023-04-03T01:53:58;4.27;;;2.43;;
42338;SDS011;27993;45.392;10.918;2023-04-03T01:56:29;4.27;;;2.57;;
42338;SDS011;27993;45.392;10.918;2023-04-03T01:58:59;4.73;;;2.90;;
42338;SDS011;27993;45.392;10.918;2023-04-03T02:01:30;6.57;;;2.67;;
42338;SDS011;27993;45.392;10.918;2023-04-03T02:04:00;5.73;;;2.90;;
42338;SDS011;27993;45.392;10.918;2023-04-03T02:06:31;4.13;;;2.63;;
42338;SDS011;27993;45.392;10.918;2023-04-03T02:09:02;3.93;;;2.40;;
42338;SDS011;27993;45.392;10.918;2023-04-03T02:11:33;6.30;;;2.60;;
42338;SDS011;27993;45.392;10.918;2023-04-03T02:14:03;6.33;;;2.60;;
42338;SDS011;27993;45.392;10.918;2023-04-03T02:16:34;7.03;;;2.30;;
42338;SDS011;27993;45.392;10.918;2023-04-03T02:19:05;6.37;;;3.30;;
42338;SDS011;27993;45.392;10.918;2023-04-03T02:21:35;15.27;;;2.93;;
42338;SDS011;27993;45.392;10.918;2023-04-03T02:24:06;11.83;;;3.20;;
42338;SDS011;27993;45.392;10.918;2023-04-03T02:26:37;3.70;;;2.37;;
42338;SDS011;27993;45.392;10.918;2023-04-03T02:29:07;6.67;;;2.60;;
42338;SDS011;27993;45.392;10.918;2023-04-03T02:31:38;4.13;;;2.50;;
42338;SDS011;27993;45.392;10.918;2023-04-03T02:34:08;4.07;;;2.33;;
42338;SDS011;27993;45.392;10.918;2023-04-03T02:36:39;4.37;;;3.07;;
42338;SDS011;27993;45.392;10.918;2023-04-03T02:39:10;5.27;;;2.90;;
42338;SDS011;27993;45.392;10.918;2023-04-03T02:41:41;5.95;;;2.50;;
42338;SDS011;27993;45.392;10.918;2023-04-03T02:44:12;5.10;;;2.70;;
42338;SDS011;27993;45.392;10.918;2023-04-03T02:46:43;8.23;;;2.55;;
42338;SDS011;27993;45.392;10.918;2023-04-03T02:49:14;4.37;;;2.23;;
42338;SDS011;27993;45.392;10.918;2023-04-03T02:51:45;6.68;;;2.92;;
42338;SDS011;27993;45.392;10.918;2023-04-03T02:54:16;4.27;;;2.67;;
42338;SDS011;27993;45.392;10.918;2023-04-03T02:56:46;5.37;;;2.67;;
42338;SDS011;27993;45.392;10.918;2023-04-03T02:59:17;5.93;;;2.23;;
42338;SDS011;27993;45.392;10.918;2023-04-03T03:01:48;5.17;;;2.13;;
42338;SDS011;27993;45.392;10.918;2023-04-03T03:04:18;4.03;;;2.30;;
42338;SDS011;27993;45.392;10.918;2023-04-03T03:06:49;4.07;;;2.70;;
42338;SDS011;27993;45.392;10.918;2023-04-03T03:09:20;7.95;;;2.58;;
42338;SDS011;27993;45.392;10.918;2023-04-03T03:11:51;6.30;;;2.57;;
42338;SDS011;27993;45.392;10.918;2023-04-03T03:14:22;5.47;;;3.00;;
42338;SDS011;27993;45.392;10.918;2023-04-03T03:16:53;11.23;;;3.83;;
42338;SDS011;27993;45.392;10.918;2023-04-03T03:19:23;7.53;;;2.57;;
42338;SDS011;27993;45.392;10.918;2023-04-03T03:21:54;12.53;;;3.87;;
42338;SDS011;27993;45.392;10.918;2023-04-03T03:24:26;6.25;;;3.10;;
42338;SDS011;27993;45.392;10.918;2023-04-03T03:26:57;8.43;;;4.47;;
42338;SDS011;27993;45.392;10.918;2023-04-03T03:29:28;8.67;;;4.43;;
42338;SDS011;27993;45.392;10.918;2023-04-03T03:31:58;8.30;;;4.40;;
42338;SDS011;27993;45.392;10.918;2023-04-03T03:34:29;3.97;;;2.73;;
42338;SDS011;27993;45.392;10.918;2023-04-03T03:36:59;18.90;;;3.37;;
42338;SDS011;27993;45.392;10.918;2023-04-03T03:39:30;13.07;;;2.97;;
42338;SDS011;27993;45.392;10.918;2023-04-03T03:42:00;5.17;;;3.20;;
42338;SDS011;27993;45.392;10.918;2023-04-03T03:44:31;7.33;;;3.60;;
42338;SDS011;27993;45.392;10.918;2023-04-03T03:47:02;8.93;;;3.97;;
42338;SDS011;27993;45.392;10.918;2023-04-03T03:49:33;13.83;;;3.40;;
42338;SDS011;27993;45.392;10.918;2023-04-03T03:52:03;5.47;;;2.40;;
42338;SDS011;27993;45.392;10.918;2023-04-03T03:54:34;6.10;;;3.03;;
42338;SDS011;27993;45.392;10.918;2023-04-03T03:57:05;6.80;;;2.83;;
42338;SDS011;27993;45.392;10.918;2023-04-03T03:59:35;6.57;;;3.43;;
42338;SDS011;27993;45.392;10.918;2023-04-03T04:02:06;9.67;;;3.23;;
42338;SDS011;27993;45.392;10.918;2023-04-03T04:04:36;9.17;;;3.93;;
42338;SDS011;27993;45.392;10.918;2023-04-03T04:07:07;6.10;;;3.20;;
42338;SDS011;27993;45.392;10.918;2023-04-03T04:09:38;6.43;;;3.60;;
42338;SDS011;27993;45.392;10.918;2023-04-03T04:12:08;4.93;;;2.47;;
42338;SDS011;27993;45.392;10.918;2023-04-03T04:14:39;17.70;;;6.40;;
42338;SDS011;27993;45.392;10.918;2023-04-03T04:17:10;10.90;;;5.87;;
42338;SDS011;27993;45.392;10.918;2023-04-03T04:19:40;10.00;;;4.97;;
42338;SDS011;27993;45.392;10.918;2023-04-03T04:22:11;10.40;;;5.23;;
42338;SDS011;27993;45.392;10.918;2023-04-03T04:24:41;13.33;;;6.17;;
42338;SDS011;27993;45.392;10.918;2023-04-03T04:27:12;8.37;;;3.90;;
42338;SDS011;27993;45.392;10.918;2023-04-03T04:29:43;12.83;;;3.97;;
42338;SDS011;27993;45.392;10.918;2023-04-03T04:32:13;8.60;;;4.00;;
42338;SDS011;27993;45.392;10.918;2023-04-03T04:34:44;7.97;;;2.77;;
42338;SDS011;27993;45.392;10.918;2023-04-03T04:37:15;7.10;;;3.23;;
42338;SDS011;27993;45.392;10.918;2023-04-03T04:39:45;9.70;;;3.80;;
42338;SDS011;27993;45.392;10.918;2023-04-03T04:42:16;6.47;;;3.33;;
42338;SDS011;27993;45.392;10.918;2023-04-03T04:44:46;8.93;;;2.77;;
42338;SDS011;27993;45.392;10.918;2023-04-03T04:47:17;6.13;;;1.80;;
42338;SDS011;27993;45.392;10.918;2023-04-03T04:49:48;5.67;;;3.10;;
42338;SDS011;27993;45.392;10.918;2023-04-03T04:52:18;6.60;;;2.80;;
42338;SDS011;27993;45.392;10.918;2023-04-03T04:54:49;5.13;;;2.50;;
42338;SDS011;27993;45.392;10.918;2023-04-03T04:57:19;3.40;;;1.93;;
42338;SDS011;27993;45.392;10.918;2023-04-03T04:59:50;7.10;;;1.93;;
42338;SDS011;27993;45.392;10.918;2023-04-03T05:02:21;2.97;;;1.93;;
42338;SDS011;27993;45.392;10.918;2023-04-03T05:04:51;2.53;;;1.50;;
42338;SDS011;27993;45.392;10.918;2023-04-03T05:07:22;5.37;;;2.40;;
42338;SDS011;27993;45.392;10.918;2023-04-03T05:09:53;4.47;;;1.80;;
42338;SDS011;27993;45.392;10.918;2023-04-03T05:12:23;5.00;;;2.27;;
42338;SDS011;27993;45.392;10.918;2023-04-03T05:14:54;8.93;;;2.23;;
42338;SDS011;27993;45.392;10.918;2023-04-03T05:17:25;4.90;;;1.90;;
42338;SDS011;27993;45.392;10.918;2023-04-03T05:19:55;5.47;;;1.73;;
42338;SDS011;27993;45.392;10.918;2023-04-03T05:22:26;3.37;;;1.20;;
42338;SDS011;27993;45.392;10.918;2023-04-03T05:24:56;4.93;;;1.57;;
42338;SDS011;27993;45.392;10.918;2023-04-03T05:27:27;4.33;;;1.27;;
42338;SDS011;27993;45.392;10.918;2023-04-03T05:29:58;3.10;;;1.77;;
42338;SDS011;27993;45.392;10.918;2023-04-03T05:32:29;4.90;;;1.62;;
42338;SDS011;27993;45.392;10.918;2023-04-03T05:35:00;7.27;;;1.67;;
42338;SDS011;27993;45.392;10.918;2023-04-03T05:37:30;3.67;;;1.58;;
42338;SDS011;27993;45.392;10.918;2023-04-03T05:40:01;4.37;;;1.90;;
42338;SDS011;27993;45.392;10.918;2023-04-03T05:42:33;3.10;;;1.58;;
42338;SDS011;27993;45.392;10.918;2023-04-03T05:45:04;2.92;;;1.62;;
42338;SDS011;27993;45.392;10.918;2023-04-03T05:47:35;5.15;;;1.37;;
42338;SDS011;27993;45.392;10.918;2023-04-03T05:50:05;8.15;;;1.48;;
42338;SDS011;27993;45.392;10.918;2023-04-03T05:52:37;13.62;;;1.77;;
42338;SDS011;27993;45.392;10.918;2023-04-03T05:55:12;5.45;;;2.20;;
42338;SDS011;27993;45.392;10.918;2023-04-03T05:57:43;3.85;;;1.58;;
42338;SDS011;27993;45.392;10.918;2023-04-03T06:00:14;8.80;;;1.73;;
42338;SDS011;27993;45.392;10.918;2023-04-03T06:02:45;2.75;;;1.60;;
42338;SDS011;27993;45.392;10.918;2023-04-03T06:05:16;5.07;;;1.90;;
42338;SDS011;27993;45.392;10.918;2023-04-03T06:10:19;2.35;;;1.60;;
42338;SDS011;27993;45.392;10.918;2023-04-03T06:12:50;4.03;;;1.95;;
42338;SDS011;27993;45.392;10.918;2023-04-03T06:17:52;6.05;;;2.20;;
42338;SDS011;27993;45.392;10.918;2023-04-03T06:20:22;3.05;;;1.83;;
42338;SDS011;27993;45.392;10.918;2023-04-03T06:22:53;3.90;;;1.73;;
42338;SDS011;27993;45.392;10.918;2023-04-03T06:25:23;6.62;;;1.87;;
42338;SDS011;27993;45.392;10.918;2023-04-03T06:27:54;3.37;;;2.10;;
42338;SDS011;27993;45.392;10.918;2023-04-03T06:32:56;4.65;;;2.10;;
42338;SDS011;27993;45.392;10.918;2023-04-03T06:35:26;4.72;;;1.75;;
42338;SDS011;27993;45.392;10.918;2023-04-03T06:37:58;2.45;;;1.40;;
42338;SDS011;27993;45.392;10.918;2023-04-03T06:40:29;9.32;;;1.85;;
42338;SDS011;27993;45.392;10.918;2023-04-03T06:43:00;3.60;;;2.03;;
42338;SDS011;27993;45.392;10.918;2023-04-03T06:45:31;2.67;;;1.83;;
42338;SDS011;27993;45.392;10.918;2023-04-03T06:48:01;2.37;;;1.42;;
42338;SDS011;27993;45.392;10.918;2023-04-03T06:50:32;2.50;;;1.60;;
42338;SDS011;27993;45.392;10.918;2023-04-03T06:53:02;7.00;;;1.80;;
42338;SDS011;27993;45.392;10.918;2023-04-03T06:55:33;2.97;;;1.50;;
42338;SDS011;27993;45.392;10.918;2023-04-03T06:58:04;6.78;;;1.80;;
42338;SDS011;27993;45.392;10.918;2023-04-03T07:00:35;4.12;;;2.87;;
42338;SDS011;27993;45.392;10.918;2023-04-03T07:03:06;5.00;;;1.98;;
42338;SDS011;27993;45.392;10.918;2023-04-03T07:05:36;2.45;;;1.52;;
42338;SDS011;27993;45.392;10.918;2023-04-03T07:08:07;4.37;;;1.80;;
42338;SDS011;27993;45.392;10.918;2023-04-03T07:10:38;7.28;;;2.40;;
42338;SDS011;27993;45.392;10.918;2023-04-03T07:15:39;5.97;;;1.57;;
42338;SDS011;27993;45.392;10.918;2023-04-03T07:18:09;3.95;;;1.75;;
42338;SDS011;27993;45.392;10.918;2023-04-03T07:20:40;3.30;;;1.60;;
42338;SDS011;27993;45.392;10.918;2023-04-03T07:23:11;6.30;;;2.03;;
42338;SDS011;27993;45.392;10.918;2023-04-03T07:25:42;2.62;;;1.73;;
42338;SDS011;27993;45.392;10.918;2023-04-03T07:28:18;6.25;;;1.90;;
42338;SDS011;27993;45.392;10.918;2023-04-03T07:30:53;8.35;;;2.08;;
42338;SDS011;27993;45.392;10.918;2023-04-03T07:33:31;2.60;;;1.70;;
42338;SDS011;27993;45.392;10.918;2023-04-03T07:36:02;11.23;;;2.60;;
42338;SDS011;27993;45.392;10.918;2023-04-03T07:38:35;2.37;;;1.58;;
42338;SDS011;27993;45.392;10.918;2023-04-03T07:41:06;5.35;;;1.80;;
42338;SDS011;27993;45.392;10.918;2023-04-03T07:43:40;4.82;;;1.85;;
42338;SDS011;27993;45.392;10.918;2023-04-03T07:46:12;5.25;;;2.87;;
42338;SDS011;27993;45.392;10.918;2023-04-03T07:48:42;3.70;;;1.98;;
42338;SDS011;27993;45.392;10.918;2023-04-03T07:51:13;5.93;;;2.17;;
42338;SDS011;27993;45.392;10.918;2023-04-03T07:53:44;8.25;;;2.33;;
42338;SDS011;27993;45.392;10.918;2023-04-03T07:58:46;3.78;;;1.90;;
42338;SDS011;27993;45.392;10.918;2023-04-03T08:01:17;13.00;;;2.30;;
42338;SDS011;27993;45.392;10.918;2023-04-03T08:03:48;7.15;;;1.95;;
42338;SDS011;27993;45.392;10.918;2023-04-03T08:06:18;3.67;;;2.17;;
42338;SDS011;27993;45.392;10.918;2023-04-03T08:08:49;3.95;;;1.70;;
42338;SDS011;27993;45.392;10.918;2023-04-03T08:13:51;4.62;;;1.77;;
42338;SDS011;27993;45.392;10.918;2023-04-03T08:16:22;3.20;;;2.20;;
42338;SDS011;27993;45.392;10.918;2023-04-03T08:18:57;11.10;;;1.87;;
42338;SDS011;27993;45.392;10.918;2023-04-03T08:21:28;4.00;;;2.40;;
42338;SDS011;27993;45.392;10.918;2023-04-03T08:26:29;7.27;;;2.53;;
42338;SDS011;27993;45.392;10.918;2023-04-03T08:31:30;4.57;;;2.33;;
42338;SDS011;27993;45.392;10.918;2023-04-03T08:36:31;7.53;;;2.43;;
42338;SDS011;27993;45.392;10.918;2023-04-03T08:39:02;6.93;;;1.83;;
42338;SDS011;27993;45.392;10.918;2023-04-03T08:41:34;3.85;;;2.50;;
42338;SDS011;27993;45.392;10.918;2023-04-03T08:44:12;7.50;;;2.62;;
42338;SDS011;27993;45.392;10.918;2023-04-03T08:49:42;6.15;;;2.05;;
42338;SDS011;27993;45.392;10.918;2023-04-03T09:00:51;6.68;;;2.75;;
42338;SDS011;27993;45.392;10.918;2023-04-03T09:03:24;3.95;;;2.35;;
42338;SDS011;27993;45.392;10.918;2023-04-03T09:11:25;4.40;;;2.53;;
42338;SDS011;27993;45.392;10.918;2023-04-03T09:14:21;3.40;;;2.55;;
42338;SDS011;27993;45.392;10.918;2023-04-03T09:16:55;8.27;;;2.95;;
42338;SDS011;27993;45.392;10.918;2023-04-03T09:19:38;4.55;;;2.37;;
42338;SDS011;27993;45.392;10.918;2023-04-03T09:22:23;4.93;;;2.58;;
42338;SDS011;27993;45.392;10.918;2023-04-03T09:24:57;3.42;;;2.15;;
42338;SDS011;27993;45.392;10.918;2023-04-03T09:27:42;4.97;;;2.58;;
42338;SDS011;27993;45.392;10.918;2023-04-03T09:32:46;7.15;;;2.42;;
42338;SDS011;27993;45.392;10.918;2023-04-03T09:35:28;5.18;;;2.55;;
42338;SDS011;27993;45.392;10.918;2023-04-03T09:40:41;3.42;;;2.25;;
42338;SDS011;27993;45.392;10.918;2023-04-03T09:45:48;4.62;;;2.33;;
42338;SDS011;27993;45.392;10.918;2023-04-03T09:48:21;6.30;;;2.78;;
42338;SDS011;27993;45.392;10.918;2023-04-03T09:50:57;6.05;;;2.25;;
42338;SDS011;27993;45.392;10.918;2023-04-03T09:53:30;3.60;;;2.12;;
42338;SDS011;27993;45.392;10.918;2023-04-03T09:56:04;4.53;;;2.05;;
42338;SDS011;27993;45.392;10.918;2023-04-03T09:58:48;5.70;;;2.60;;
42338;SDS011;27993;45.392;10.918;2023-04-03T10:01:35;4.05;;;2.30;;
42338;SDS011;27993;45.392;10.918;2023-04-03T10:04:15;5.35;;;2.83;;
42338;SDS011;27993;45.392;10.918;2023-04-03T10:06:49;9.50;;;2.08;;
42338;SDS011;27993;45.392;10.918;2023-04-03T10:09:23;8.73;;;2.75;;
42338;SDS011;27993;45.392;10.918;2023-04-03T10:14:38;12.40;;;3.20;;
42338;SDS011;27993;45.392;10.918;2023-04-03T10:17:17;5.25;;;2.03;;
42338;SDS011;27993;45.392;10.918;2023-04-03T10:19:54;4.18;;;2.05;;
42338;SDS011;27993;45.392;10.918;2023-04-03T10:25:23;11.27;;;2.70;;
42338;SDS011;27993;45.392;10.918;2023-04-03T10:28:01;4.03;;;2.03;;
42338;SDS011;27993;45.392;10.918;2023-04-03T10:30:41;4.90;;;2.50;;
42338;SDS011;27993;45.392;10.918;2023-04-03T10:33:21;7.47;;;2.50;;
42338;SDS011;27993;45.392;10.918;2023-04-03T10:36:19;14.18;;;3.70;;
42338;SDS011;27993;45.392;10.918;2023-04-03T10:41:48;4.37;;;2.08;;
42338;SDS011;27993;45.392;10.918;2023-04-03T10:50:45;6.00;;;2.67;;
42338;SDS011;27993;45.392;10.918;2023-04-03T10:58:57;4.95;;;2.15;;
42338;SDS011;27993;45.392;10.918;2023-04-03T11:01:37;8.57;;;2.17;;
42338;SDS011;27993;45.392;10.918;2023-04-03T11:04:11;6.47;;;2.33;;
42338;SDS011;27993;45.392;10.918;2023-04-03T11:06:45;4.35;;;2.25;;
42338;SDS011;27993;45.392;10.918;2023-04-03T11:09:41;4.25;;;2.25;;
42338;SDS011;27993;45.392;10.918;2023-04-03T11:12:27;5.43;;;2.70;;
42338;SDS011;27993;45.392;10.918;2023-04-03T11:15:13;8.80;;;2.60;;
42338;SDS011;27993;45.392;10.918;2023-04-03T11:20:30;5.70;;;1.92;;
42338;SDS011;27993;45.392;10.918;2023-04-03T11:23:05;4.32;;;2.15;;
42338;SDS011;27993;45.392;10.918;2023-04-03T11:25:43;5.05;;;2.53;;
42338;SDS011;27993;45.392;10.918;2023-04-03T11:28:16;6.72;;;2.45;;
42338;SDS011;27993;45.392;10.918;2023-04-03T11:36:21;15.38;;;2.62;;
42338;SDS011;27993;45.392;10.918;2023-04-03T11:38:59;5.12;;;2.08;;
42338;SDS011;27993;45.392;10.918;2023-04-03T11:41:38;4.32;;;2.17;;
42338;SDS011;27993;45.392;10.918;2023-04-03T11:44:29;9.07;;;2.53;;
42338;SDS011;27993;45.392;10.918;2023-04-03T11:47:04;7.35;;;2.72;;
42338;SDS011;27993;45.392;10.918;2023-04-03T11:49:57;6.28;;;2.35;;
42338;SDS011;27993;45.392;10.918;2023-04-03T12:22:14;3.65;;;1.87;;
42338;SDS011;27993;45.392;10.918;2023-04-03T12:24:50;6.55;;;3.03;;
42338;SDS011;27993;45.392;10.918;2023-04-03T12:27:23;12.15;;;2.70;;
42338;SDS011;27993;45.392;10.918;2023-04-03T12:29:58;5.20;;;2.45;;
42338;SDS011;27993;45.392;10.918;2023-04-03T12:46:48;8.20;;;2.83;;
42338;SDS011;27993;45.392;10.918;2023-04-03T12:49:24;5.85;;;2.28;;
42338;SDS011;27993;45.392;10.918;2023-04-03T12:51:57;8.70;;;2.90;;
42338;SDS011;27993;45.392;10.918;2023-04-03T12:54:32;7.37;;;2.37;;
42338;SDS011;27993;45.392;10.918;2023-04-03T12:57:24;4.70;;;2.35;;
42338;SDS011;27993;45.392;10.918;2023-04-03T12:59:57;6.25;;;2.70;;
42338;SDS011;27993;45.392;10.918;2023-04-03T13:02:29;5.45;;;2.17;;
42338;SDS011;27993;45.392;10.918;2023-04-03T13:05:07;3.28;;;2.05;;
42338;SDS011;27993;45.392;10.918;2023-04-03T13:07:39;10.50;;;2.30;;
42338;SDS011;27993;45.392;10.918;2023-04-03T13:10:14;5.68;;;2.30;;
42338;SDS011;27993;45.392;10.918;2023-04-03T13:12:54;8.77;;;2.22;;
42338;SDS011;27993;45.392;10.918;2023-04-03T13:15:43;3.72;;;2.12;;
42338;SDS011;27993;45.392;10.918;2023-04-03T13:23:42;3.97;;;2.15;;
42338;SDS011;27993;45.392;10.918;2023-04-03T13:26:16;5.70;;;1.95;;
42338;SDS011;27993;45.392;10.918;2023-04-03T13:28:50;3.12;;;2.22;;
42338;SDS011;27993;45.392;10.918;2023-04-03T13:31:39;10.52;;;2.37;;
42338;SDS011;27993;45.392;10.918;2023-04-03T13:34:11;7.68;;;2.37;;
42338;SDS011;27993;45.392;10.918;2023-04-03T13:36:44;6.60;;;2.90;;
42338;SDS011;27993;45.392;10.918;2023-04-03T13:41:46;13.27;;;2.20;;
42338;SDS011;27993;45.392;10.918;2023-04-03T13:46:55;8.30;;;1.87;;
42338;SDS011;27993;45.392;10.918;2023-04-03T13:49:29;4.00;;;1.98;;
42338;SDS011;27993;45.392;10.918;2023-04-03T13:55:25;13.05;;;2.78;;
42338;SDS011;27993;45.392;10.918;2023-04-03T13:58:16;3.33;;;2.05;;
42338;SDS011;27993;45.392;10.918;2023-04-03T14:00:54;6.78;;;3.03;;
42338;SDS011;27993;45.392;10.918;2023-04-03T14:03:42;6.40;;;2.12;;
42338;SDS011;27993;45.392;10.918;2023-04-03T14:06:22;12.13;;;2.37;;
42338;SDS011;27993;45.392;10.918;2023-04-03T14:08:53;3.12;;;1.90;;
42338;SDS011;27993;45.392;10.918;2023-04-03T14:11:26;9.40;;;2.80;;
42338;SDS011;27993;45.392;10.918;2023-04-03T14:14:06;5.18;;;2.17;;
42338;SDS011;27993;45.392;10.918;2023-04-03T14:16:44;3.62;;;2.17;;
42338;SDS011;27993;45.392;10.918;2023-04-03T14:19:20;18.77;;;3.22;;
42338;SDS011;27993;45.392;10.918;2023-04-03T14:21:59;6.22;;;2.15;;
42338;SDS011;27993;45.392;10.918;2023-04-03T14:24:33;9.20;;;2.58;;
42338;SDS011;27993;45.392;10.918;2023-04-03T14:27:05;7.65;;;2.72;;
42338;SDS011;27993;45.392;10.918;2023-04-03T14:29:50;13.82;;;2.03;;
42338;SDS011;27993;45.392;10.918;2023-04-03T14:32:22;4.62;;;2.20;;
42338;SDS011;27993;45.392;10.918;2023-04-03T14:34:55;6.55;;;1.70;;
42338;SDS011;27993;45.392;10.918;2023-04-03T14:37:27;11.27;;;2.35;;
42338;SDS011;27993;45.392;10.918;2023-04-03T14:40:00;10.80;;;2.12;;
42338;SDS011;27993;45.392;10.918;2023-04-03T14:42:34;8.40;;;2.10;;
42338;SDS011;27993;45.392;10.918;2023-04-03T14:45:09;5.60;;;2.97;;
42338;SDS011;27993;45.392;10.918;2023-04-03T14:47:47;7.70;;;2.53;;
42338;SDS011;27993;45.392;10.918;2023-04-03T14:50:22;10.40;;;2.37;;
42338;SDS011;27993;45.392;10.918;2023-04-03T14:52:56;7.03;;;2.10;;
42338;SDS011;27993;45.392;10.918;2023-04-03T14:55:29;11.00;;;2.50;;
42338;SDS011;27993;45.392;10.918;2023-04-03T14:58:00;10.98;;;2.47;;
42338;SDS011;27993;45.392;10.918;2023-04-03T15:00:31;10.15;;;2.90;;
42338;SDS011;27993;45.392;10.918;2023-04-03T15:03:02;8.10;;;2.60;;
42338;SDS011;27993;45.392;10.918;2023-04-03T15:05:32;5.10;;;2.23;;
42338;SDS011;27993;45.392;10.918;2023-04-03T15:08:08;6.55;;;2.42;;
42338;SDS011;27993;45.392;10.918;2023-04-03T15:11:01;5.78;;;2.47;;
42338;SDS011;27993;45.392;10.918;2023-04-03T15:13:32;8.60;;;2.23;;
42338;SDS011;27993;45.392;10.918;2023-04-03T15:16:02;7.80;;;2.37;;
42338;SDS011;27993;45.392;10.918;2023-04-03T15:18:36;9.95;;;2.22;;
42338;SDS011;27993;45.392;10.918;2023-04-03T15:21:08;7.87;;;2.47;;
42338;SDS011;27993;45.392;10.918;2023-04-03T15:23:38;12.50;;;2.90;;
42338;SDS011;27993;45.392;10.918;2023-04-03T15:26:09;6.20;;;2.10;;
42338;SDS011;27993;45.392;10.918;2023-04-03T15:28:40;14.50;;;2.53;;
42338;SDS011;27993;45.392;10.918;2023-04-03T15:31:12;7.78;;;2.08;;
42338;SDS011;27993;45.392;10.918;2023-04-03T15:33:43;6.07;;;2.57;;
42338;SDS011;27993;45.392;10.918;2023-04-03T15:36:13;7.00;;;2.30;;
42338;SDS011;27993;45.392;10.918;2023-04-03T15:38:44;6.37;;;2.22;;
42338;SDS011;27993;45.392;10.918;2023-04-03T15:41:14;7.60;;;1.47;;
42338;SDS011;27993;45.392;10.918;2023-04-03T15:43:45;7.73;;;1.50;;
42338;SDS011;27993;45.392;10.918;2023-04-03T15:46:16;6.07;;;2.20;;
42338;SDS011;27993;45.392;10.918;2023-04-03T15:48:46;3.53;;;2.03;;
42338;SDS011;27993;45.392;10.918;2023-04-03T15:51:17;17.75;;;2.65;;
42338;SDS011;27993;45.392;10.918;2023-04-03T15:53:48;3.70;;;1.90;;
42338;SDS011;27993;45.392;10.918;2023-04-03T15:56:18;3.83;;;1.63;;
42338;SDS011;27993;45.392;10.918;2023-04-03T15:58:49;12.67;;;3.40;;
42338;SDS011;27993;45.392;10.918;2023-04-03T16:01:19;10.13;;;2.47;;
42338;SDS011;27993;45.392;10.918;2023-04-03T16:03:50;2.90;;;1.77;;
42338;SDS011;27993;45.392;10.918;2023-04-03T16:06:21;5.20;;;1.80;;
42338;SDS011;27993;45.392;10.918;2023-04-03T16:08:51;3.75;;;2.28;;
42338;SDS011;27993;45.392;10.918;2023-04-03T16:11:27;5.28;;;2.45;;
42338;SDS011;27993;45.392;10.918;2023-04-03T16:13:57;16.62;;;2.15;;
42338;SDS011;27993;45.392;10.918;2023-04-03T16:16:28;4.50;;;1.93;;
42338;SDS011;27993;45.392;10.918;2023-04-03T16:21:31;5.75;;;2.97;;
42338;SDS011;27993;45.392;10.918;2023-04-03T16:24:02;6.68;;;2.10;;
42338;SDS011;27993;45.392;10.918;2023-04-03T16:26:33;6.72;;;1.92;;
42338;SDS011;27993;45.392;10.918;2023-04-03T16:29:04;16.23;;;2.10;;
42338;SDS011;27993;45.392;10.918;2023-04-03T16:31:35;4.27;;;1.37;;
42338;SDS011;27993;45.392;10.918;2023-04-03T16:34:05;9.13;;;2.00;;
42338;SDS011;27993;45.392;10.918;2023-04-03T16:36:36;11.27;;;1.83;;
42338;SDS011;27993;45.392;10.918;2023-04-03T16:39:07;5.45;;;1.95;;
42338;SDS011;27993;45.392;10.918;2023-04-03T16:41:39;3.17;;;1.50;;
42338;SDS011;27993;45.392;10.918;2023-04-03T16:44:10;4.70;;;1.43;;
42338;SDS011;27993;45.392;10.918;2023-04-03T16:46:41;3.50;;;1.37;;
42338;SDS011;27993;45.392;10.918;2023-04-03T16:49:12;4.57;;;1.75;;
42338;SDS011;27993;45.392;10.918;2023-04-03T16:51:42;6.80;;;1.40;;
42338;SDS011;27993;45.392;10.918;2023-04-03T16:54:13;8.40;;;2.33;;
42338;SDS011;27993;45.392;10.918;2023-04-03T16:56:43;7.20;;;1.83;;
42338;SDS011;27993;45.392;10.918;2023-04-03T16:59:14;5.27;;;1.80;;
42338;SDS011;27993;45.392;10.918;2023-04-03T17:01:45;5.97;;;1.67;;
42338;SDS011;27993;45.392;10.918;2023-04-03T17:04:16;2.58;;;1.23;;
42338;SDS011;27993;45.392;10.918;2023-04-03T17:06:46;5.47;;;1.57;;
42338;SDS011;27993;45.392;10.918;2023-04-03T17:09:17;9.00;;;1.92;;
42338;SDS011;27993;45.392;10.918;2023-04-03T17:11:50;2.58;;;1.30;;
42338;SDS011;27993;45.392;10.918;2023-04-03T17:14:21;4.73;;;1.57;;
42338;SDS011;27993;45.392;10.918;2023-04-03T17:16:51;2.93;;;1.37;;
42338;SDS011;27993;45.392;10.918;2023-04-03T17:19:22;2.83;;;1.25;;
42338;SDS011;27993;45.392;10.918;2023-04-03T17:21:54;5.03;;;1.90;;
42338;SDS011;27993;45.392;10.918;2023-04-03T17:24:25;5.87;;;1.80;;
42338;SDS011;27993;45.392;10.918;2023-04-03T17:26:56;6.07;;;2.42;;
42338;SDS011;27993;45.392;10.918;2023-04-03T17:29:26;7.57;;;2.43;;
42338;SDS011;27993;45.392;10.918;2023-04-03T17:31:57;4.10;;;1.93;;
42338;SDS011;27993;45.392;10.918;2023-04-03T17:34:28;10.10;;;1.85;;